createdAt,value
2024-01-15T00:01:20.659Z,15.5
2024-01-15T00:31:38.751Z,13.3
2024-01-15T01:01:57.970Z,15
2024-01-15T02:02:35.170Z,16
2024-01-15T02:32:53.441Z,19.5
2024-01-15T03:03:12.013Z,19.7
2024-01-15T03:33:31.113Z,12.1
2024-01-15T04:03:50.048Z,13.1
2024-01-15T04:34:09.118Z,7.5
2024-01-15T05:04:26.318Z,19.3
2024-01-15T05:34:44.650Z,11
2024-01-15T06:05:02.328Z,12.2
2024-01-15T06:35:23.410Z,16.2
2024-01-15T07:05:42.305Z,15.3
2024-01-15T07:36:03.645Z,15.8
2024-01-15T08:36:43.187Z,9.6
2024-01-15T09:07:02.112Z,15.9
2024-01-15T09:37:32.344Z,12.8
2024-01-15T10:07:46.766Z,15.2
2024-01-15T10:38:07.048Z,12.5
2024-01-15T11:08:25.482Z,9.7
2024-01-15T11:38:43.980Z,7.3
2024-01-15T12:09:02.197Z,7.6
2024-01-15T13:09:39.866Z,6.8
2024-01-15T13:39:56.234Z,6.9
2024-01-15T14:10:13.727Z,8.3
2024-01-15T14:40:33.123Z,7.5
2024-01-15T15:10:52.497Z,4.7
2024-01-15T15:41:10.173Z,2.8
2024-01-15T16:11:27.682Z,1.8
2024-01-15T16:41:45.058Z,2.3
2024-01-15T17:12:04.717Z,6.3
2024-01-15T17:42:23.407Z,1.4
2024-01-15T18:12:40.645Z,4.5
2024-01-15T18:43:00.413Z,1.9
2024-01-15T19:13:19.042Z,2.9
2024-01-15T19:43:36.969Z,9
2024-01-15T20:13:54.409Z,1.5
2024-01-15T20:44:12.133Z,2.1
2024-01-15T21:14:28.631Z,1.8
2024-01-15T21:44:47.163Z,1.5
2024-01-15T22:15:07.134Z,5.1
2024-01-15T22:45:24.805Z,6.5
2024-01-15T23:15:42.203Z,2.5
2024-01-15T23:46:06.245Z,10
